N624ML SCIR-SCTB
Flight info
| Callsign | N624ML |
|---|---|
| Flight time | 1h 37m |
| Altitude | 17500 |
| Route | VFR |
| Aircraft | PC12/L-G/C |
Departure
| Time | 2026-04-24 18:55 |
|---|---|
| Airport | Robinson Crusoe Airport (SCIR) |
Arrival
| Time | 2026-04-24 20:32 |
|---|---|
| Airport | Eulogio Sánchez Airport (SCTB) |
| Time | Latitude | Longitude | Altitude | Speed | Heading |
|---|---|---|---|---|---|
| 2026-04-24 18:54 | -33.66801 | -78.92779 | 431 ft | 96 kts | 149° |
| 2026-04-24 18:55 | -33.67166 | -78.91013 | 1199 ft | 124 kts | 93° |
| 2026-04-24 18:55 | -33.67173 | -78.89908 | 1576 ft | 138 kts | 93° |
| 2026-04-24 18:55 | -33.67175 | -78.88716 | 1944 ft | 147 kts | 93° |
| 2026-04-24 18:56 | -33.67172 | -78.87473 | 2262 ft | 158 kts | 93° |
| 2026-04-24 18:56 | -33.67170 | -78.86084 | 2604 ft | 174 kts | 93° |
| 2026-04-24 18:56 | -33.67161 | -78.84581 | 2966 ft | 183 kts | 93° |
| 2026-04-24 18:56 | -33.67153 | -78.83048 | 3319 ft | 188 kts | 94° |
| 2026-04-24 18:57 | -33.67160 | -78.81470 | 3673 ft | 191 kts | 94° |
| 2026-04-24 18:57 | -33.67174 | -78.79864 | 4030 ft | 193 kts | 93° |
| 2026-04-24 18:57 | -33.67195 | -78.78245 | 4390 ft | 195 kts | 94° |
| 2026-04-24 18:57 | -33.67222 | -78.76620 | 4742 ft | 196 kts | 94° |
| 2026-04-24 18:58 | -33.67249 | -78.74995 | 5103 ft | 196 kts | 94° |
| 2026-04-24 18:58 | -33.67279 | -78.73360 | 5463 ft | 196 kts | 94° |
| 2026-04-24 18:58 | -33.67314 | -78.71724 | 5822 ft | 196 kts | 94° |
| 2026-04-24 18:58 | -33.67354 | -78.70095 | 6173 ft | 196 kts | 94° |
| 2026-04-24 18:59 | -33.67381 | -78.68471 | 6523 ft | 196 kts | 92° |
| 2026-04-24 18:59 | -33.67388 | -78.66840 | 6885 ft | 196 kts | 93° |
| 2026-04-24 18:59 | -33.67411 | -78.65201 | 7250 ft | 196 kts | 93° |
| 2026-04-24 18:59 | -33.67434 | -78.63586 | 7609 ft | 195 kts | 93° |
| 2026-04-24 19:00 | -33.67459 | -78.61949 | 7970 ft | 195 kts | 93° |
| 2026-04-24 19:00 | -33.67481 | -78.60324 | 8332 ft | 199 kts | 93° |
| 2026-04-24 19:00 | -33.67508 | -78.58633 | 8700 ft | 205 kts | 93° |
| 2026-04-24 19:00 | -33.67537 | -78.56929 | 9068 ft | 209 kts | 93° |
| 2026-04-24 19:01 | -33.67565 | -78.55179 | 9439 ft | 212 kts | 93° |
| 2026-04-24 19:01 | -33.67593 | -78.53390 | 9813 ft | 214 kts | 93° |
| 2026-04-24 19:01 | -33.67621 | -78.51612 | 10180 ft | 215 kts | 92° |
| 2026-04-24 19:01 | -33.67647 | -78.49809 | 10551 ft | 216 kts | 93° |
| 2026-04-24 19:02 | -33.67668 | -78.48029 | 10915 ft | 217 kts | 93° |
| 2026-04-24 19:02 | -33.67687 | -78.46214 | 11284 ft | 218 kts | 93° |
| 2026-04-24 19:02 | -33.67703 | -78.44385 | 11655 ft | 219 kts | 93° |
| 2026-04-24 19:02 | -33.67715 | -78.42554 | 12026 ft | 220 kts | 92° |
| 2026-04-24 19:03 | -33.67729 | -78.40726 | 12395 ft | 220 kts | 93° |
| 2026-04-24 19:03 | -33.67744 | -78.38904 | 12761 ft | 220 kts | 93° |
| 2026-04-24 19:03 | -33.67761 | -78.37067 | 13130 ft | 220 kts | 92° |
| 2026-04-24 19:03 | -33.67777 | -78.35232 | 13499 ft | 221 kts | 92° |
| 2026-04-24 19:04 | -33.67789 | -78.33408 | 13859 ft | 221 kts | 92° |
| 2026-04-24 19:04 | -33.67797 | -78.31563 | 14227 ft | 220 kts | 92° |
| 2026-04-24 19:04 | -33.67803 | -78.29737 | 14584 ft | 220 kts | 92° |
| 2026-04-24 19:04 | -33.67800 | -78.27898 | 14944 ft | 220 kts | 92° |
| 2026-04-24 19:05 | -33.67794 | -78.26079 | 15300 ft | 220 kts | 92° |
| 2026-04-24 19:05 | -33.67781 | -78.24244 | 15660 ft | 220 kts | 92° |
| 2026-04-24 19:05 | -33.67765 | -78.22429 | 16016 ft | 219 kts | 92° |
| 2026-04-24 19:05 | -33.67782 | -78.20615 | 16370 ft | 218 kts | 96° |
| 2026-04-24 19:06 | -33.67853 | -78.18799 | 16663 ft | 220 kts | 96° |
| 2026-04-24 19:06 | -33.67920 | -78.16952 | 16905 ft | 225 kts | 96° |
| 2026-04-24 19:06 | -33.67977 | -78.15037 | 17151 ft | 229 kts | 95° |
| 2026-04-24 19:06 | -33.68027 | -78.13126 | 17391 ft | 232 kts | 95° |
| 2026-04-24 19:07 | -33.68074 | -78.11190 | 17630 ft | 234 kts | 95° |
| 2026-04-24 19:07 | -33.68119 | -78.09213 | 17801 ft | 240 kts | 95° |
| 2026-04-24 19:07 | -33.68167 | -78.07169 | 17820 ft | 251 kts | 95° |
| 2026-04-24 19:07 | -33.68214 | -78.05053 | 17822 ft | 261 kts | 95° |
| 2026-04-24 19:08 | -33.68263 | -78.02840 | 17819 ft | 267 kts | 95° |
| 2026-04-24 19:08 | -33.68311 | -78.00588 | 17818 ft | 272 kts | 95° |
| 2026-04-24 19:08 | -33.68358 | -77.98323 | 17819 ft | 276 kts | 95° |
| 2026-04-24 19:08 | -33.68409 | -77.96007 | 17817 ft | 278 kts | 95° |
| 2026-04-24 19:09 | -33.68457 | -77.93689 | 17816 ft | 280 kts | 95° |
| 2026-04-24 19:09 | -33.68507 | -77.91326 | 17815 ft | 282 kts | 95° |
| 2026-04-24 19:09 | -33.68556 | -77.88996 | 17816 ft | 283 kts | 95° |
| 2026-04-24 19:09 | -33.68604 | -77.86618 | 17814 ft | 284 kts | 95° |
| 2026-04-24 19:10 | -33.68652 | -77.84260 | 17815 ft | 285 kts | 95° |
| 2026-04-24 19:10 | -33.68700 | -77.81904 | 17818 ft | 285 kts | 95° |
| 2026-04-24 19:10 | -33.68749 | -77.79497 | 17815 ft | 286 kts | 95° |
| 2026-04-24 19:10 | -33.68795 | -77.77117 | 17811 ft | 286 kts | 94° |
| 2026-04-24 19:11 | -33.68842 | -77.74740 | 17813 ft | 286 kts | 94° |
| 2026-04-24 19:11 | -33.68888 | -77.72372 | 17814 ft | 286 kts | 94° |
| 2026-04-24 19:11 | -33.68935 | -77.69997 | 17814 ft | 286 kts | 94° |
| 2026-04-24 19:11 | -33.68980 | -77.67600 | 17811 ft | 286 kts | 94° |
| 2026-04-24 19:12 | -33.69024 | -77.65233 | 17812 ft | 286 kts | 95° |
| 2026-04-24 19:12 | -33.69069 | -77.62843 | 17816 ft | 286 kts | 94° |
| 2026-04-24 19:12 | -33.69112 | -77.60443 | 17813 ft | 286 kts | 94° |
| 2026-04-24 19:12 | -33.69156 | -77.58051 | 17809 ft | 286 kts | 94° |
| 2026-04-24 19:13 | -33.69186 | -77.56461 | 17811 ft | 286 kts | 94° |
| 2026-04-24 19:13 | -33.69242 | -77.53288 | 17816 ft | 287 kts | 94° |
| 2026-04-24 19:13 | -33.69285 | -77.50900 | 17812 ft | 287 kts | 94° |
| 2026-04-24 19:13 | -33.69325 | -77.48524 | 17808 ft | 287 kts | 95° |
| 2026-04-24 19:14 | -33.69367 | -77.46142 | 17805 ft | 287 kts | 95° |
| 2026-04-24 19:14 | -33.69408 | -77.43735 | 17809 ft | 287 kts | 94° |
| 2026-04-24 19:14 | -33.69449 | -77.41354 | 17807 ft | 287 kts | 95° |
| 2026-04-24 19:14 | -33.69488 | -77.38972 | 17803 ft | 287 kts | 95° |
| 2026-04-24 19:15 | -33.69529 | -77.36577 | 17804 ft | 287 kts | 94° |
| 2026-04-24 19:15 | -33.69569 | -77.34180 | 17802 ft | 287 kts | 94° |
| 2026-04-24 19:15 | -33.69608 | -77.31814 | 17799 ft | 287 kts | 94° |
| 2026-04-24 19:15 | -33.69645 | -77.29414 | 17798 ft | 286 kts | 94° |
| 2026-04-24 19:16 | -33.69720 | -77.24635 | 17797 ft | 286 kts | 94° |
| 2026-04-24 19:16 | -33.69756 | -77.22269 | 17795 ft | 286 kts | 94° |
| 2026-04-24 19:16 | -33.69792 | -77.19881 | 17794 ft | 286 kts | 94° |
| 2026-04-24 19:17 | -33.69828 | -77.17495 | 17795 ft | 286 kts | 94° |
| 2026-04-24 19:17 | -33.69862 | -77.15113 | 17795 ft | 286 kts | 94° |
| 2026-04-24 19:17 | -33.69898 | -77.12730 | 17795 ft | 286 kts | 94° |
| 2026-04-24 19:17 | -33.69933 | -77.10349 | 17795 ft | 286 kts | 94° |
| 2026-04-24 19:18 | -33.69965 | -77.07968 | 17797 ft | 286 kts | 94° |
| 2026-04-24 19:18 | -33.70000 | -77.05592 | 17793 ft | 286 kts | 94° |
| 2026-04-24 19:18 | -33.70033 | -77.03185 | 17795 ft | 286 kts | 94° |
| 2026-04-24 19:18 | -33.70065 | -77.00823 | 17795 ft | 286 kts | 94° |
| 2026-04-24 19:19 | -33.70098 | -76.98428 | 17794 ft | 286 kts | 94° |
| 2026-04-24 19:19 | -33.70130 | -76.96034 | 17796 ft | 286 kts | 94° |
| 2026-04-24 19:19 | -33.70161 | -76.93678 | 17795 ft | 286 kts | 94° |
| 2026-04-24 19:19 | -33.70193 | -76.91277 | 17797 ft | 286 kts | 93° |
| 2026-04-24 19:20 | -33.70224 | -76.88884 | 17793 ft | 287 kts | 93° |
| 2026-04-24 19:20 | -33.70252 | -76.86517 | 17792 ft | 287 kts | 94° |
| 2026-04-24 19:20 | -33.70280 | -76.84122 | 17790 ft | 287 kts | 93° |
| 2026-04-24 19:20 | -33.70309 | -76.81712 | 17788 ft | 287 kts | 93° |
| 2026-04-24 19:21 | -33.70338 | -76.79330 | 17787 ft | 287 kts | 93° |
| 2026-04-24 19:21 | -33.70365 | -76.76927 | 17789 ft | 287 kts | 93° |
| 2026-04-24 19:21 | -33.70394 | -76.74554 | 17791 ft | 287 kts | 93° |
| 2026-04-24 19:21 | -33.70421 | -76.72147 | 17788 ft | 287 kts | 93° |
| 2026-04-24 19:22 | -33.70447 | -76.69772 | 17786 ft | 287 kts | 94° |
| 2026-04-24 19:22 | -33.70476 | -76.67371 | 17783 ft | 287 kts | 93° |
| 2026-04-24 19:22 | -33.70498 | -76.64999 | 17784 ft | 287 kts | 94° |
| 2026-04-24 19:22 | -33.70526 | -76.62605 | 17788 ft | 287 kts | 94° |
| 2026-04-24 19:23 | -33.70550 | -76.60207 | 17786 ft | 287 kts | 93° |
| 2026-04-24 19:23 | -33.70575 | -76.57840 | 17787 ft | 286 kts | 93° |
| 2026-04-24 19:23 | -33.70599 | -76.55421 | 17787 ft | 286 kts | 93° |
| 2026-04-24 19:23 | -33.70623 | -76.53035 | 17787 ft | 287 kts | 93° |
| 2026-04-24 19:24 | -33.70645 | -76.50661 | 17790 ft | 287 kts | 93° |
| 2026-04-24 19:24 | -33.70667 | -76.48281 | 17787 ft | 287 kts | 93° |
| 2026-04-24 19:24 | -33.70689 | -76.45867 | 17787 ft | 287 kts | 93° |
| 2026-04-24 19:24 | -33.70711 | -76.43476 | 17785 ft | 287 kts | 93° |
| 2026-04-24 19:25 | -33.70732 | -76.41104 | 17787 ft | 287 kts | 93° |
| 2026-04-24 19:25 | -33.70752 | -76.38705 | 17787 ft | 288 kts | 93° |
| 2026-04-24 19:25 | -33.70773 | -76.36285 | 17789 ft | 287 kts | 93° |
| 2026-04-24 19:25 | -33.70792 | -76.33916 | 17782 ft | 287 kts | 93° |
| 2026-04-24 19:26 | -33.70814 | -76.31512 | 17781 ft | 287 kts | 92° |
| 2026-04-24 19:26 | -33.70831 | -76.29109 | 17782 ft | 287 kts | 92° |
| 2026-04-24 19:26 | -33.70850 | -76.26720 | 17777 ft | 287 kts | 93° |
| 2026-04-24 19:26 | -33.70868 | -76.24329 | 17778 ft | 287 kts | 92° |
| 2026-04-24 19:27 | -33.70885 | -76.21941 | 17782 ft | 287 kts | 93° |
| 2026-04-24 19:27 | -33.70903 | -76.19548 | 17779 ft | 287 kts | 92° |
| 2026-04-24 19:27 | -33.70919 | -76.17169 | 17774 ft | 287 kts | 92° |
| 2026-04-24 19:27 | -33.70935 | -76.14745 | 17773 ft | 287 kts | 92° |
| 2026-04-24 19:28 | -33.70950 | -76.12354 | 17772 ft | 287 kts | 92° |
| 2026-04-24 19:28 | -33.70966 | -76.09961 | 17773 ft | 287 kts | 92° |
| 2026-04-24 19:28 | -33.70980 | -76.07568 | 17768 ft | 287 kts | 92° |
| 2026-04-24 19:28 | -33.70994 | -76.05209 | 17770 ft | 287 kts | 92° |
| 2026-04-24 19:29 | -33.71022 | -76.00397 | 17770 ft | 287 kts | 92° |
| 2026-04-24 19:29 | -33.71035 | -75.97996 | 17771 ft | 287 kts | 92° |
| 2026-04-24 19:29 | -33.71048 | -75.95607 | 17770 ft | 287 kts | 92° |
| 2026-04-24 19:30 | -33.71059 | -75.93243 | 17771 ft | 287 kts | 92° |
| 2026-04-24 19:30 | -33.71071 | -75.90836 | 17768 ft | 287 kts | 92° |
| 2026-04-24 19:30 | -33.71081 | -75.88454 | 17766 ft | 287 kts | 92° |
| 2026-04-24 19:30 | -33.71093 | -75.86046 | 17771 ft | 287 kts | 92° |
| 2026-04-24 19:31 | -33.71103 | -75.83679 | 17773 ft | 287 kts | 92° |
| 2026-04-24 19:31 | -33.71112 | -75.81267 | 17772 ft | 287 kts | 92° |
| 2026-04-24 19:31 | -33.71122 | -75.78868 | 17774 ft | 287 kts | 92° |
| 2026-04-24 19:31 | -33.71130 | -75.76493 | 17777 ft | 287 kts | 92° |
| 2026-04-24 19:32 | -33.71138 | -75.74107 | 17772 ft | 288 kts | 92° |
| 2026-04-24 19:32 | -33.71146 | -75.71677 | 17774 ft | 288 kts | 92° |
| 2026-04-24 19:32 | -33.71154 | -75.69291 | 17773 ft | 288 kts | 92° |
| 2026-04-24 19:32 | -33.71159 | -75.66917 | 17778 ft | 288 kts | 92° |
| 2026-04-24 19:33 | -33.71167 | -75.64516 | 17778 ft | 288 kts | 92° |
| 2026-04-24 19:33 | -33.71173 | -75.62090 | 17773 ft | 288 kts | 92° |
| 2026-04-24 19:33 | -33.71177 | -75.59710 | 17774 ft | 288 kts | 92° |
| 2026-04-24 19:33 | -33.71182 | -75.57318 | 17774 ft | 288 kts | 92° |
| 2026-04-24 19:34 | -33.71188 | -75.54909 | 17774 ft | 288 kts | 92° |
| 2026-04-24 19:34 | -33.71191 | -75.52503 | 17768 ft | 288 kts | 92° |
| 2026-04-24 19:34 | -33.71196 | -75.50120 | 17770 ft | 288 kts | 92° |
| 2026-04-24 19:34 | -33.71200 | -75.47692 | 17763 ft | 289 kts | 92° |
| 2026-04-24 19:35 | -33.71202 | -75.45311 | 17765 ft | 288 kts | 92° |
| 2026-04-24 19:35 | -33.71204 | -75.42917 | 17766 ft | 288 kts | 92° |
| 2026-04-24 19:35 | -33.71206 | -75.40505 | 17766 ft | 288 kts | 92° |
| 2026-04-24 19:35 | -33.71206 | -75.38110 | 17765 ft | 288 kts | 92° |
| 2026-04-24 19:36 | -33.71208 | -75.35702 | 17768 ft | 288 kts | 92° |
| 2026-04-24 19:36 | -33.71208 | -75.33298 | 17757 ft | 288 kts | 91° |
| 2026-04-24 19:36 | -33.71208 | -75.30902 | 17754 ft | 288 kts | 91° |
| 2026-04-24 19:36 | -33.71208 | -75.28523 | 17755 ft | 288 kts | 91° |
| 2026-04-24 19:37 | -33.71206 | -75.26122 | 17754 ft | 288 kts | 91° |
| 2026-04-24 19:37 | -33.71205 | -75.23700 | 17753 ft | 287 kts | 91° |
| 2026-04-24 19:37 | -33.71203 | -75.21310 | 17754 ft | 287 kts | 91° |
| 2026-04-24 19:37 | -33.71201 | -75.18923 | 17753 ft | 287 kts | 91° |
| 2026-04-24 19:38 | -33.71199 | -75.16530 | 17752 ft | 287 kts | 91° |
| 2026-04-24 19:38 | -33.71196 | -75.14151 | 17751 ft | 287 kts | 91° |
| 2026-04-24 19:38 | -33.71191 | -75.11755 | 17750 ft | 287 kts | 91° |
| 2026-04-24 19:38 | -33.71187 | -75.09355 | 17755 ft | 287 kts | 91° |
| 2026-04-24 19:39 | -33.71183 | -75.06969 | 17752 ft | 287 kts | 91° |
| 2026-04-24 19:39 | -33.71176 | -75.04559 | 17748 ft | 287 kts | 91° |
| 2026-04-24 19:39 | -33.71172 | -75.02168 | 17749 ft | 288 kts | 91° |
| 2026-04-24 19:39 | -33.71165 | -74.99762 | 17752 ft | 288 kts | 91° |
| 2026-04-24 19:40 | -33.71158 | -74.97367 | 17749 ft | 288 kts | 91° |
| 2026-04-24 19:40 | -33.71151 | -74.94996 | 17750 ft | 288 kts | 91° |
| 2026-04-24 19:40 | -33.71144 | -74.92558 | 17751 ft | 288 kts | 91° |
| 2026-04-24 19:40 | -33.71136 | -74.90168 | 17748 ft | 288 kts | 91° |
| 2026-04-24 19:41 | -33.71129 | -74.87749 | 17747 ft | 287 kts | 91° |
| 2026-04-24 19:41 | -33.71119 | -74.85371 | 17747 ft | 288 kts | 91° |
| 2026-04-24 19:41 | -33.71109 | -74.82939 | 17750 ft | 288 kts | 91° |
| 2026-04-24 19:41 | -33.71099 | -74.80553 | 17750 ft | 288 kts | 91° |
| 2026-04-24 19:42 | -33.71091 | -74.78136 | 17749 ft | 288 kts | 91° |
| 2026-04-24 19:42 | -33.71079 | -74.75731 | 17745 ft | 288 kts | 91° |
| 2026-04-24 19:42 | -33.71068 | -74.73322 | 17747 ft | 288 kts | 91° |
| 2026-04-24 19:42 | -33.71057 | -74.70904 | 17742 ft | 288 kts | 91° |
| 2026-04-24 19:43 | -33.71043 | -74.68500 | 17745 ft | 288 kts | 91° |
| 2026-04-24 19:43 | -33.71032 | -74.66089 | 17744 ft | 288 kts | 91° |
| 2026-04-24 19:43 | -33.71019 | -74.63680 | 17744 ft | 288 kts | 91° |
| 2026-04-24 19:43 | -33.71004 | -74.61285 | 17745 ft | 288 kts | 91° |
| 2026-04-24 19:44 | -33.70990 | -74.58849 | 17741 ft | 288 kts | 91° |
| 2026-04-24 19:44 | -33.70975 | -74.56465 | 17745 ft | 288 kts | 91° |
| 2026-04-24 19:44 | -33.70961 | -74.54037 | 17741 ft | 289 kts | 91° |
| 2026-04-24 19:44 | -33.70946 | -74.51622 | 17744 ft | 289 kts | 91° |
| 2026-04-24 19:45 | -33.70929 | -74.49184 | 17742 ft | 289 kts | 91° |
| 2026-04-24 19:45 | -33.70913 | -74.46767 | 17741 ft | 289 kts | 91° |
| 2026-04-24 19:45 | -33.70896 | -74.44361 | 17743 ft | 288 kts | 91° |
| 2026-04-24 19:45 | -33.70879 | -74.41936 | 17741 ft | 289 kts | 91° |
| 2026-04-24 19:46 | -33.70860 | -74.39514 | 17743 ft | 289 kts | 91° |
| 2026-04-24 19:46 | -33.70842 | -74.37086 | 17744 ft | 289 kts | 91° |
| 2026-04-24 19:46 | -33.70824 | -74.34663 | 17739 ft | 289 kts | 90° |
| 2026-04-24 19:46 | -33.70805 | -74.32262 | 17734 ft | 288 kts | 90° |
| 2026-04-24 19:47 | -33.70785 | -74.29836 | 17731 ft | 288 kts | 90° |
| 2026-04-24 19:47 | -33.70764 | -74.27439 | 17735 ft | 288 kts | 90° |
| 2026-04-24 19:47 | -33.70744 | -74.25026 | 17741 ft | 288 kts | 90° |
| 2026-04-24 19:47 | -33.70723 | -74.22623 | 17738 ft | 288 kts | 90° |
| 2026-04-24 19:48 | -33.70701 | -74.20201 | 17731 ft | 288 kts | 90° |
| 2026-04-24 19:48 | -33.70678 | -74.17785 | 17734 ft | 287 kts | 90° |
| 2026-04-24 19:48 | -33.70633 | -74.12938 | 17734 ft | 288 kts | 90° |
| 2026-04-24 19:49 | -33.70585 | -74.08107 | 17735 ft | 288 kts | 90° |
| 2026-04-24 19:49 | -33.70536 | -74.03277 | 17732 ft | 288 kts | 90° |
| 2026-04-24 19:50 | -33.70458 | -73.96024 | 17727 ft | 288 kts | 90° |
| 2026-04-24 19:50 | -33.70433 | -73.93613 | 17729 ft | 288 kts | 90° |
| 2026-04-24 19:51 | -33.70377 | -73.88751 | 17724 ft | 288 kts | 90° |
| 2026-04-24 19:51 | -33.70348 | -73.86319 | 17724 ft | 288 kts | 90° |
| 2026-04-24 19:52 | -33.70291 | -73.81488 | 17725 ft | 288 kts | 90° |
| 2026-04-24 19:52 | -33.70262 | -73.79064 | 17715 ft | 288 kts | 90° |
| 2026-04-24 19:52 | -33.70231 | -73.76636 | 17722 ft | 288 kts | 89° |
| 2026-04-24 19:52 | -33.70200 | -73.74232 | 17724 ft | 288 kts | 90° |
| 2026-04-24 19:53 | -33.70167 | -73.71777 | 17718 ft | 288 kts | 90° |
| 2026-04-24 19:53 | -33.70136 | -73.69352 | 17720 ft | 288 kts | 90° |
| 2026-04-24 19:53 | -33.70072 | -73.64487 | 17719 ft | 289 kts | 90° |
| 2026-04-24 19:54 | -33.70039 | -73.62064 | 17716 ft | 289 kts | 90° |
| 2026-04-24 19:54 | -33.70005 | -73.59590 | 17716 ft | 288 kts | 90° |
| 2026-04-24 19:54 | -33.69971 | -73.57164 | 17715 ft | 288 kts | 90° |
| 2026-04-24 19:54 | -33.69936 | -73.54752 | 17716 ft | 288 kts | 90° |
| 2026-04-24 19:55 | -33.69913 | -73.53155 | 17717 ft | 288 kts | 89° |
| 2026-04-24 19:55 | -33.69865 | -73.49847 | 17718 ft | 289 kts | 89° |
| 2026-04-24 19:55 | -33.69829 | -73.47401 | 17714 ft | 289 kts | 90° |
| 2026-04-24 19:55 | -33.69791 | -73.44934 | 17714 ft | 288 kts | 89° |
| 2026-04-24 19:56 | -33.69755 | -73.42456 | 17712 ft | 288 kts | 89° |
| 2026-04-24 19:56 | -33.69717 | -73.39981 | 17716 ft | 289 kts | 89° |
| 2026-04-24 19:56 | -33.69678 | -73.37525 | 17715 ft | 289 kts | 89° |
| 2026-04-24 19:56 | -33.69640 | -73.35074 | 17713 ft | 289 kts | 89° |
| 2026-04-24 19:57 | -33.69600 | -73.32593 | 17705 ft | 289 kts | 89° |
| 2026-04-24 19:57 | -33.69561 | -73.30131 | 17700 ft | 289 kts | 89° |
| 2026-04-24 19:57 | -33.69519 | -73.27643 | 17696 ft | 289 kts | 89° |
| 2026-04-24 19:57 | -33.69478 | -73.25171 | 17704 ft | 288 kts | 89° |
| 2026-04-24 19:58 | -33.69436 | -73.22687 | 17701 ft | 288 kts | 89° |
| 2026-04-24 19:58 | -33.69395 | -73.20217 | 17703 ft | 288 kts | 89° |
| 2026-04-24 19:58 | -33.69352 | -73.17755 | 17697 ft | 288 kts | 88° |
| 2026-04-24 19:58 | -33.69309 | -73.15277 | 17699 ft | 288 kts | 88° |
| 2026-04-24 19:59 | -33.69265 | -73.12807 | 17696 ft | 288 kts | 89° |
| 2026-04-24 19:59 | -33.69221 | -73.10342 | 17694 ft | 288 kts | 88° |
| 2026-04-24 19:59 | -33.69178 | -73.07890 | 17696 ft | 288 kts | 89° |
| 2026-04-24 19:59 | -33.69133 | -73.05434 | 17697 ft | 288 kts | 88° |
| 2026-04-24 20:00 | -33.69088 | -73.02973 | 17688 ft | 288 kts | 88° |
| 2026-04-24 20:00 | -33.69042 | -73.00564 | 17691 ft | 288 kts | 88° |
| 2026-04-24 20:00 | -33.68997 | -72.98149 | 17699 ft | 288 kts | 88° |
| 2026-04-24 20:00 | -33.68952 | -72.95736 | 17694 ft | 288 kts | 88° |
| 2026-04-24 20:01 | -33.68906 | -72.93351 | 17691 ft | 289 kts | 88° |
| 2026-04-24 20:01 | -33.68858 | -72.90939 | 17680 ft | 289 kts | 88° |
| 2026-04-24 20:01 | -33.68811 | -72.88516 | 17688 ft | 288 kts | 88° |
| 2026-04-24 20:01 | -33.68764 | -72.86137 | 17695 ft | 288 kts | 89° |
| 2026-04-24 20:02 | -33.68716 | -72.83717 | 17694 ft | 289 kts | 88° |
| 2026-04-24 20:02 | -33.68668 | -72.81333 | 17687 ft | 289 kts | 88° |
| 2026-04-24 20:02 | -33.68619 | -72.78914 | 17683 ft | 289 kts | 88° |
| 2026-04-24 20:02 | -33.68570 | -72.76525 | 17685 ft | 289 kts | 88° |
| 2026-04-24 20:03 | -33.68521 | -72.74101 | 17687 ft | 288 kts | 88° |
| 2026-04-24 20:03 | -33.68470 | -72.71716 | 17682 ft | 289 kts | 88° |
| 2026-04-24 20:03 | -33.68418 | -72.69295 | 17687 ft | 288 kts | 88° |
| 2026-04-24 20:03 | -33.68368 | -72.66924 | 17687 ft | 288 kts | 88° |
| 2026-04-24 20:04 | -33.68317 | -72.64497 | 17678 ft | 289 kts | 88° |
| 2026-04-24 20:04 | -33.68264 | -72.62106 | 17674 ft | 289 kts | 88° |
| 2026-04-24 20:04 | -33.68212 | -72.59715 | 17674 ft | 288 kts | 88° |
| 2026-04-24 20:04 | -33.68159 | -72.57298 | 17675 ft | 288 kts | 88° |
| 2026-04-24 20:05 | -33.68105 | -72.54911 | 17676 ft | 288 kts | 88° |
| 2026-04-24 20:05 | -33.68051 | -72.52490 | 17678 ft | 288 kts | 88° |
| 2026-04-24 20:05 | -33.67997 | -72.50090 | 17675 ft | 289 kts | 88° |
| 2026-04-24 20:05 | -33.67942 | -72.47707 | 17669 ft | 289 kts | 88° |
| 2026-04-24 20:06 | -33.67886 | -72.45280 | 17670 ft | 288 kts | 88° |
| 2026-04-24 20:06 | -33.67830 | -72.42864 | 17668 ft | 288 kts | 88° |
| 2026-04-24 20:06 | -33.67775 | -72.40459 | 17667 ft | 288 kts | 88° |
| 2026-04-24 20:06 | -33.67718 | -72.38073 | 17659 ft | 288 kts | 88° |
| 2026-04-24 20:07 | -33.67677 | -72.36424 | 17467 ft | 295 kts | 88° |
| 2026-04-24 20:07 | -33.67594 | -72.33104 | 17135 ft | 303 kts | 87° |
| 2026-04-24 20:07 | -33.67533 | -72.30593 | 16890 ft | 306 kts | 87° |
| 2026-04-24 20:07 | -33.67473 | -72.28036 | 16636 ft | 308 kts | 87° |
| 2026-04-24 20:08 | -33.67410 | -72.25462 | 16385 ft | 309 kts | 87° |
| 2026-04-24 20:08 | -33.67347 | -72.22884 | 16136 ft | 310 kts | 87° |
| 2026-04-24 20:08 | -33.67282 | -72.20306 | 15887 ft | 310 kts | 87° |
| 2026-04-24 20:08 | -33.67218 | -72.17733 | 15637 ft | 310 kts | 87° |
| 2026-04-24 20:09 | -33.67154 | -72.15149 | 15385 ft | 310 kts | 87° |
| 2026-04-24 20:09 | -33.67086 | -72.12565 | 15133 ft | 309 kts | 87° |
| 2026-04-24 20:09 | -33.67017 | -72.10004 | 14886 ft | 308 kts | 87° |
| 2026-04-24 20:09 | -33.66953 | -72.07423 | 14637 ft | 308 kts | 86° |
| 2026-04-24 20:10 | -33.66887 | -72.04899 | 14387 ft | 305 kts | 87° |
| 2026-04-24 20:10 | -33.66814 | -72.02377 | 14109 ft | 302 kts | 87° |
| 2026-04-24 20:10 | -33.66746 | -71.99860 | 13893 ft | 299 kts | 86° |
| 2026-04-24 20:10 | -33.66684 | -71.97391 | 13642 ft | 298 kts | 86° |
| 2026-04-24 20:11 | -33.66618 | -71.94913 | 13385 ft | 297 kts | 86° |
| 2026-04-24 20:11 | -33.66551 | -71.92443 | 13130 ft | 296 kts | 87° |
| 2026-04-24 20:11 | -33.66483 | -71.89980 | 12846 ft | 295 kts | 87° |
| 2026-04-24 20:11 | -33.66418 | -71.87535 | 12565 ft | 291 kts | 87° |
| 2026-04-24 20:12 | -33.66351 | -71.85126 | 12318 ft | 287 kts | 86° |
| 2026-04-24 20:12 | -33.66283 | -71.82775 | 12093 ft | 284 kts | 87° |
| 2026-04-24 20:12 | -33.66214 | -71.80424 | 11843 ft | 281 kts | 87° |
| 2026-04-24 20:12 | -33.66148 | -71.78073 | 11595 ft | 280 kts | 87° |
| 2026-04-24 20:13 | -33.66081 | -71.75761 | 11336 ft | 278 kts | 86° |
| 2026-04-24 20:13 | -33.66016 | -71.73462 | 11068 ft | 277 kts | 86° |
| 2026-04-24 20:13 | -33.65950 | -71.71147 | 10820 ft | 276 kts | 86° |
| 2026-04-24 20:13 | -33.65882 | -71.68870 | 10585 ft | 275 kts | 87° |
| 2026-04-24 20:14 | -33.65813 | -71.66566 | 10349 ft | 275 kts | 87° |
| 2026-04-24 20:14 | -33.65747 | -71.64289 | 10094 ft | 274 kts | 87° |
| 2026-04-24 20:14 | -33.65673 | -71.62000 | 9862 ft | 273 kts | 85° |
| 2026-04-24 20:14 | -33.65370 | -71.59770 | 9613 ft | 271 kts | 78° |
| 2026-04-24 20:15 | -33.65076 | -71.57539 | 9373 ft | 269 kts | 80° |
| 2026-04-24 20:15 | -33.64800 | -71.55351 | 9098 ft | 261 kts | 80° |
| 2026-04-24 20:15 | -33.64555 | -71.53230 | 8846 ft | 254 kts | 81° |
| 2026-04-24 20:15 | -33.64322 | -71.51169 | 8585 ft | 247 kts | 81° |
| 2026-04-24 20:16 | -33.64093 | -71.49154 | 8323 ft | 242 kts | 82° |
| 2026-04-24 20:16 | -33.63862 | -71.47162 | 8077 ft | 238 kts | 82° |
| 2026-04-24 20:16 | -33.63629 | -71.45216 | 7832 ft | 236 kts | 81° |
| 2026-04-24 20:16 | -33.63394 | -71.43284 | 7578 ft | 233 kts | 81° |
| 2026-04-24 20:17 | -33.63159 | -71.41371 | 7309 ft | 231 kts | 81° |
| 2026-04-24 20:17 | -33.62701 | -71.37607 | 6825 ft | 227 kts | 81° |
| 2026-04-24 20:17 | -33.62462 | -71.35712 | 6563 ft | 227 kts | 81° |
| 2026-04-24 20:18 | -33.62310 | -71.34475 | 6388 ft | 228 kts | 81° |
| 2026-04-24 20:18 | -33.62028 | -71.31943 | 6065 ft | 227 kts | 82° |
| 2026-04-24 20:18 | -33.61816 | -71.30048 | 5811 ft | 227 kts | 82° |
| 2026-04-24 20:18 | -33.61605 | -71.28178 | 5555 ft | 227 kts | 82° |
| 2026-04-24 20:19 | -33.61395 | -71.26314 | 5296 ft | 227 kts | 82° |
| 2026-04-24 20:19 | -33.61182 | -71.24456 | 5058 ft | 227 kts | 82° |
| 2026-04-24 20:19 | -33.60961 | -71.22573 | 4817 ft | 227 kts | 82° |
| 2026-04-24 20:19 | -33.60746 | -71.20719 | 4580 ft | 227 kts | 82° |
| 2026-04-24 20:20 | -33.60528 | -71.18836 | 4347 ft | 226 kts | 82° |
| 2026-04-24 20:20 | -33.60316 | -71.16966 | 4095 ft | 226 kts | 82° |
| 2026-04-24 20:20 | -33.60112 | -71.15109 | 3862 ft | 227 kts | 82° |
| 2026-04-24 20:20 | -33.59907 | -71.13233 | 3637 ft | 226 kts | 82° |
| 2026-04-24 20:21 | -33.59704 | -71.11372 | 3447 ft | 224 kts | 82° |
| 2026-04-24 20:21 | -33.59507 | -71.09550 | 3420 ft | 216 kts | 82° |
| 2026-04-24 20:21 | -33.59313 | -71.07774 | 3425 ft | 214 kts | 82° |
| 2026-04-24 20:21 | -33.59103 | -71.06001 | 3420 ft | 213 kts | 81° |
| 2026-04-24 20:22 | -33.58872 | -71.04222 | 3422 ft | 213 kts | 81° |
| 2026-04-24 20:22 | -33.58654 | -71.02451 | 3422 ft | 214 kts | 81° |
| 2026-04-24 20:22 | -33.58440 | -71.00674 | 3424 ft | 215 kts | 82° |
| 2026-04-24 20:22 | -33.58225 | -70.98909 | 3430 ft | 214 kts | 81° |
| 2026-04-24 20:23 | -33.58017 | -70.97153 | 3427 ft | 214 kts | 82° |
| 2026-04-24 20:23 | -33.57811 | -70.95377 | 3435 ft | 214 kts | 81° |
| 2026-04-24 20:23 | -33.57601 | -70.93600 | 3431 ft | 214 kts | 82° |
| 2026-04-24 20:23 | -33.57394 | -70.91837 | 3432 ft | 214 kts | 82° |
| 2026-04-24 20:24 | -33.57189 | -70.90064 | 3428 ft | 214 kts | 82° |
| 2026-04-24 20:24 | -33.56988 | -70.88291 | 3324 ft | 219 kts | 81° |
| 2026-04-24 20:24 | -33.56779 | -70.86441 | 3092 ft | 227 kts | 82° |
| 2026-04-24 20:24 | -33.56558 | -70.84552 | 2863 ft | 231 kts | 82° |
| 2026-04-24 20:25 | -33.56309 | -70.82619 | 2623 ft | 234 kts | 82° |
| 2026-04-24 20:25 | -33.56045 | -70.80695 | 2464 ft | 232 kts | 81° |
| 2026-04-24 20:25 | -33.55783 | -70.78814 | 2448 ft | 226 kts | 81° |
| 2026-04-24 20:25 | -33.55454 | -70.77006 | 2453 ft | 222 kts | 76° |
| 2026-04-24 20:26 | -33.55065 | -70.75199 | 2455 ft | 219 kts | 76° |
| 2026-04-24 20:26 | -33.54475 | -70.73540 | 2460 ft | 219 kts | 48° |
| 2026-04-24 20:26 | -33.53318 | -70.72388 | 2469 ft | 218 kts | 38° |
| 2026-04-24 20:26 | -33.52101 | -70.71259 | 2535 ft | 215 kts | 38° |
| 2026-04-24 20:27 | -33.50943 | -70.70196 | 2773 ft | 205 kts | 37° |
| 2026-04-24 20:27 | -33.49850 | -70.69167 | 3011 ft | 199 kts | 38° |
| 2026-04-24 20:27 | -33.48908 | -70.67974 | 3249 ft | 194 kts | 47° |
| 2026-04-24 20:27 | -33.47987 | -70.66825 | 3446 ft | 193 kts | 45° |
| 2026-04-24 20:28 | -33.46991 | -70.65722 | 3490 ft | 199 kts | 39° |
| 2026-04-24 20:28 | -33.45924 | -70.64619 | 3510 ft | 204 kts | 39° |
| 2026-04-24 20:28 | -33.44833 | -70.63490 | 3518 ft | 208 kts | 39° |
| 2026-04-24 20:28 | -33.43724 | -70.62348 | 3522 ft | 211 kts | 39° |
| 2026-04-24 20:29 | -33.42615 | -70.61204 | 3526 ft | 212 kts | 39° |
| 2026-04-24 20:29 | -33.41486 | -70.60036 | 3529 ft | 210 kts | 39° |
| 2026-04-24 20:29 | -33.40557 | -70.58704 | 3531 ft | 204 kts | 56° |
| 2026-04-24 20:29 | -33.39919 | -70.57201 | 3544 ft | 200 kts | 64° |
| 2026-04-24 20:30 | -33.39365 | -70.55680 | 3552 ft | 197 kts | 65° |
| 2026-04-24 20:30 | -33.39199 | -70.54094 | 3555 ft | 194 kts | 106° |
| 2026-04-24 20:30 | -33.39996 | -70.52905 | 3561 ft | 176 kts | 150° |
| 2026-04-24 20:30 | -33.41071 | -70.52684 | 3592 ft | 143 kts | 186° |
| 2026-04-24 20:31 | -33.41928 | -70.53003 | 3539 ft | 120 kts | 208° |
| 2026-04-24 20:31 | -33.42652 | -70.53477 | 3312 ft | 114 kts | 211° |
| 2026-04-24 20:31 | -33.43335 | -70.53900 | 2958 ft | 108 kts | 204° |
| 2026-04-24 20:31 | -33.43987 | -70.54173 | 2658 ft | 93 kts | 197° |
| 2026-04-24 20:32 | -33.44565 | -70.54368 | 2409 ft | 80 kts | 195° |
| 2026-04-24 20:32 | -33.45118 | -70.54528 | 2240 ft | 83 kts | 191° |
| 2026-04-24 20:32 | -33.45566 | -70.54652 | 2185 ft | 42 kts | 195° |
| 2026-04-24 20:32 | -33.45765 | -70.54723 | 2170 ft | 23 kts | 220° |
| 2026-04-24 20:33 | -33.45810 | -70.54791 | 2164 ft | 0 kts | 236° |
| 2026-04-24 20:33 | -33.45817 | -70.54803 | 2163 ft | 6 kts | 239° |
| 2026-04-24 20:33 | -33.45801 | -70.54816 | 2163 ft | 9 kts | 7° |
| 2026-04-24 20:33 | -33.45712 | -70.54792 | 2168 ft | 12 kts | 15° |
| 2026-04-24 20:34 | -33.45634 | -70.54771 | 2174 ft | 10 kts | 14° |
| 2026-04-24 20:34 | -33.45570 | -70.54755 | 2177 ft | 4 kts | 351° |
| 2026-04-24 20:34 | -33.45551 | -70.54813 | 2174 ft | 12 kts | 281° |
| 2026-04-24 20:34 | -33.45520 | -70.54891 | 2170 ft | 6 kts | 346° |
| 2026-04-24 20:35 | -33.45474 | -70.54881 | 2172 ft | 8 kts | 13° |
| 2026-04-24 20:35 | -33.45411 | -70.54862 | 2176 ft | 10 kts | 14° |
| 2026-04-24 20:35 | -33.45340 | -70.54842 | 2180 ft | 8 kts | 13° |
| 2026-04-24 20:35 | -33.45318 | -70.54863 | 2179 ft | 0 kts | 298° |
| 2026-04-24 20:36 | -33.45313 | -70.54860 | 2180 ft | 0 kts | 101° |
| 2026-04-24 20:36 | -33.45314 | -70.54859 | 2180 ft | 0 kts | 99° |